createdAt,value
2023-08-07T00:01:23.751Z,5.97
2023-08-07T00:03:52.253Z,6.22
2023-08-07T00:06:20.531Z,6.28
2023-08-07T00:08:48.995Z,6.35
2023-08-07T00:11:17.348Z,6.97
2023-08-07T00:13:45.753Z,5.78
2023-08-07T00:16:14.320Z,5.80
2023-08-07T00:18:42.621Z,6.55
2023-08-07T00:21:11.096Z,5.50
2023-08-07T00:23:39.445Z,5.97
2023-08-07T00:26:07.937Z,6.15
2023-08-07T00:28:36.266Z,6.30
2023-08-07T00:31:04.722Z,5.90
2023-08-07T00:33:33.120Z,5.22
2023-08-07T00:36:01.461Z,5.88
2023-08-07T00:38:29.879Z,5.38
2023-08-07T00:40:58.282Z,5.95
2023-08-07T00:43:26.820Z,5.65
2023-08-07T00:45:55.516Z,5.43
2023-08-07T00:48:23.930Z,5.43
2023-08-07T00:50:54.079Z,5.75
2023-08-07T00:53:23.837Z,6.38
2023-08-07T00:55:52.456Z,5.85
2023-08-07T00:58:20.344Z,6.05
2023-08-07T01:00:50.905Z,6.60
2023-08-07T01:03:20.765Z,7.20
2023-08-07T01:05:50.624Z,6.25
2023-08-07T01:08:22.063Z,7.00
2023-08-07T01:11:51.657Z,6.68
2023-08-07T01:14:47.740Z,7.78
2023-08-07T01:17:24.689Z,7.03
2023-08-07T01:19:56.704Z,7.10
2023-08-07T01:22:26.963Z,8.18
2023-08-07T01:24:57.323Z,7.68
2023-08-07T01:28:12.281Z,9.23
2023-08-07T01:30:53.742Z,7.45
2023-08-07T01:33:41.117Z,8.02
2023-08-07T01:38:54.156Z,8.40
2023-08-07T01:41:23.612Z,7.80
2023-08-07T01:43:53.837Z,7.43
2023-08-07T01:46:22.379Z,7.43
2023-08-07T01:48:50.207Z,8.10
2023-08-07T01:51:18.572Z,8.43
2023-08-07T01:53:48.966Z,8.10
2023-08-07T01:56:19.167Z,7.00
2023-08-07T01:58:49.279Z,7.85
2023-08-07T02:01:19.388Z,8.63
2023-08-07T02:03:49.660Z,8.98
2023-08-07T02:06:19.930Z,8.73
2023-08-07T02:08:50.407Z,8.55
2023-08-07T02:11:20.504Z,8.52
2023-08-07T02:13:50.608Z,9.63
2023-08-07T02:16:20.787Z,9.30
2023-08-07T02:18:50.936Z,8.85
2023-08-07T02:21:21.109Z,8.18
2023-08-07T02:23:51.427Z,8.60
2023-08-07T02:26:21.573Z,9.13
2023-08-07T02:28:54.592Z,9.02
2023-08-07T02:31:24.702Z,8.77
2023-08-07T02:33:54.860Z,8.75
2023-08-07T02:36:24.980Z,9.30
2023-08-07T02:38:55.113Z,9.88
2023-08-07T02:41:25.223Z,9.35
2023-08-07T02:43:55.409Z,9.45
2023-08-07T02:46:25.786Z,9.48
2023-08-07T02:48:55.935Z,9.25
2023-08-07T02:51:26.088Z,9.13
2023-08-07T02:53:56.202Z,9.55
2023-08-07T02:56:26.343Z,8.40
2023-08-07T02:58:59.361Z,9.60
2023-08-07T03:01:30.851Z,9.57
2023-08-07T03:04:01.018Z,9.68
2023-08-07T03:06:29.548Z,10.38
2023-08-07T03:08:57.757Z,9.60
2023-08-07T03:11:26.208Z,9.82
2023-08-07T03:13:54.608Z,9.45
2023-08-07T03:16:23.094Z,9.95
2023-08-07T03:18:51.479Z,9.63
2023-08-07T03:21:19.766Z,9.85
2023-08-07T03:23:48.243Z,10.75
2023-08-07T03:26:19.453Z,9.93
2023-08-07T03:28:49.937Z,10.13
2023-08-07T03:31:19.556Z,10.05
2023-08-07T03:33:47.904Z,10.77
2023-08-07T03:36:16.299Z,10.43
2023-08-07T03:38:44.712Z,10.55
2023-08-07T03:41:13.242Z,12.43
2023-08-07T03:43:41.500Z,10.95
2023-08-07T03:46:09.962Z,11.15
2023-08-07T03:48:40.027Z,11.63
2023-08-07T03:51:10.424Z,11.65
2023-08-07T03:53:40.663Z,11.38
2023-08-07T03:56:10.456Z,12.27
2023-08-07T03:58:41.321Z,12.40
2023-08-07T04:01:11.775Z,11.50
2023-08-07T04:03:40.326Z,12.40
2023-08-07T04:06:09.264Z,11.07
2023-08-07T04:08:37.046Z,11.20
2023-08-07T04:11:06.757Z,11.95
2023-08-07T04:13:36.931Z,10.80
2023-08-07T04:16:06.161Z,11.02
2023-08-07T04:18:35.135Z,11.13
2023-08-07T04:21:05.399Z,10.60
2023-08-07T04:23:35.253Z,10.38
2023-08-07T04:26:05.362Z,9.90
2023-08-07T04:28:35.092Z,11.27
2023-08-07T04:31:04.904Z,10.15
2023-08-07T04:33:34.705Z,10.10
2023-08-07T04:36:05.167Z,9.32
2023-08-07T04:38:35.186Z,9.45
2023-08-07T04:41:05.031Z,9.88
2023-08-07T04:43:34.959Z,9.82
2023-08-07T04:46:04.727Z,10.02
2023-08-07T04:48:34.721Z,9.32
2023-08-07T04:51:04.783Z,9.15
2023-08-07T04:53:34.747Z,8.65
2023-08-07T04:56:04.934Z,9.38
2023-08-07T04:58:34.736Z,8.40
2023-08-07T05:01:03.133Z,7.68
2023-08-07T05:03:32.633Z,8.20
2023-08-07T05:06:02.078Z,8.10
2023-08-07T05:08:31.415Z,8.30
2023-08-07T05:10:59.884Z,8.02
2023-08-07T05:13:28.236Z,7.30
2023-08-07T05:15:56.626Z,7.18
2023-08-07T05:18:25.124Z,7.10
2023-08-07T05:20:53.516Z,7.20
2023-08-07T05:23:21.917Z,7.43
2023-08-07T05:25:50.442Z,6.50
2023-08-07T05:28:18.843Z,7.07
2023-08-07T05:30:47.280Z,7.07
2023-08-07T05:33:16.862Z,7.00
2023-08-07T05:35:44.276Z,6.40
2023-08-07T05:38:12.620Z,6.68
2023-08-07T05:40:41.973Z,7.50
2023-08-07T05:43:10.056Z,6.78
2023-08-07T05:45:38.406Z,6.47
2023-08-07T05:48:08.023Z,6.63
2023-08-07T05:50:38.374Z,6.82
2023-08-07T05:53:08.500Z,6.78
2023-08-07T05:55:44.568Z,5.85
2023-08-07T05:58:14.718Z,6.57
2023-08-07T06:00:44.791Z,6.57
2023-08-07T06:03:14.654Z,6.18
2023-08-07T06:05:44.639Z,7.47
2023-08-07T06:08:14.453Z,6.45
2023-08-07T06:10:44.249Z,5.65
2023-08-07T06:13:19.818Z,5.60
2023-08-07T06:15:56.929Z,5.80
2023-08-07T06:18:26.855Z,6.22
2023-08-07T06:20:57.789Z,5.35
2023-08-07T06:23:27.850Z,5.00
2023-08-07T06:25:59.906Z,5.97
2023-08-07T06:28:30.167Z,4.80
2023-08-07T06:31:09.356Z,5.00
2023-08-07T06:33:40.326Z,5.05
2023-08-07T06:36:10.655Z,3.88
2023-08-07T06:38:40.393Z,4.18
2023-08-07T06:41:10.422Z,4.47
2023-08-07T06:43:40.342Z,4.30
2023-08-07T06:46:10.192Z,4.13
2023-08-07T06:48:40.061Z,3.67
2023-08-07T06:51:09.816Z,3.92
2023-08-07T06:53:39.660Z,4.18
2023-08-07T06:56:09.489Z,4.32
2023-08-07T06:58:39.317Z,3.67
2023-08-07T07:01:09.431Z,4.13
2023-08-07T07:03:39.265Z,4.35
2023-08-07T07:06:09.700Z,3.50
2023-08-07T07:08:39.765Z,4.13
2023-08-07T07:11:09.723Z,3.70
2023-08-07T07:13:40.215Z,3.72
2023-08-07T07:16:09.919Z,4.20
2023-08-07T07:18:40.707Z,4.30
2023-08-07T07:21:08.316Z,4.10
2023-08-07T07:23:36.742Z,4.10
2023-08-07T07:26:05.190Z,3.33
2023-08-07T07:28:33.637Z,3.58
2023-08-07T07:31:01.990Z,2.90
2023-08-07T07:33:30.442Z,3.67
2023-08-07T07:35:58.894Z,3.08
2023-08-07T07:38:27.698Z,3.25
2023-08-07T07:40:57.955Z,3.60
2023-08-07T07:43:27.061Z,3.65
2023-08-07T07:45:55.538Z,3.13
2023-08-07T07:48:23.827Z,3.13
2023-08-07T07:50:54.208Z,3.28
2023-08-07T07:53:25.870Z,3.08
2023-08-07T07:55:56.761Z,3.15
2023-08-07T07:58:26.649Z,3.50
2023-08-07T08:00:56.209Z,3.25
2023-08-07T08:03:26.329Z,3.70
2023-08-07T08:05:56.316Z,3.35
2023-08-07T08:08:28.938Z,2.80
2023-08-07T08:10:57.527Z,3.00
2023-08-07T08:13:26.873Z,3.28
2023-08-07T08:15:54.370Z,3.97
2023-08-07T08:18:22.808Z,3.17
2023-08-07T08:20:51.051Z,3.40
2023-08-07T08:23:19.544Z,3.67
2023-08-07T08:25:49.007Z,3.45
2023-08-07T08:28:16.923Z,3.65
2023-08-07T08:30:44.810Z,3.63
2023-08-07T08:33:15.824Z,3.80
2023-08-07T08:35:46.390Z,4.03
2023-08-07T08:38:20.689Z,3.20
2023-08-07T08:40:53.963Z,4.45
2023-08-07T08:43:28.838Z,3.55
2023-08-07T08:45:57.622Z,4.15
2023-08-07T08:48:29.535Z,3.97
2023-08-07T08:50:57.767Z,4.43
2023-08-07T08:53:28.756Z,5.25
2023-08-07T08:55:56.359Z,4.10
2023-08-07T08:58:25.429Z,4.50
2023-08-07T09:00:54.336Z,4.47
2023-08-07T09:03:26.811Z,4.63
2023-08-07T09:06:03.027Z,3.83
2023-08-07T09:08:35.907Z,3.47
2023-08-07T09:11:05.986Z,3.40
2023-08-07T09:13:38.173Z,3.85
2023-08-07T09:16:11.591Z,3.38
2023-08-07T09:18:42.524Z,3.50
2023-08-07T09:21:13.355Z,3.83
2023-08-07T09:23:43.008Z,3.80
2023-08-07T09:26:13.991Z,3.90
2023-08-07T09:28:44.684Z,4.60
2023-08-07T09:31:18.991Z,3.75
2023-08-07T09:33:51.285Z,3.22
2023-08-07T09:36:21.452Z,2.78
2023-08-07T09:38:52.157Z,2.75
2023-08-07T09:41:23.749Z,2.88
2023-08-07T09:43:54.037Z,2.60
2023-08-07T09:46:27.113Z,2.60
2023-08-07T09:49:00.591Z,2.35
2023-08-07T09:51:47.866Z,2.40
2023-08-07T09:54:16.545Z,2.10
2023-08-07T09:56:49.031Z,2.40
2023-08-07T09:59:18.454Z,2.42
2023-08-07T10:01:49.007Z,1.98
2023-08-07T10:04:19.498Z,2.38
2023-08-07T10:06:50.512Z,2.33
2023-08-07T10:09:17.963Z,2.67
2023-08-07T10:11:47.560Z,1.92
2023-08-07T10:14:19.687Z,2.30
2023-08-07T10:16:52.611Z,2.10
2023-08-07T10:19:22.777Z,2.35
2023-08-07T10:21:55.692Z,2.20
2023-08-07T10:24:28.126Z,1.88
2023-08-07T10:27:01.435Z,2.53
2023-08-07T10:29:36.259Z,2.22
2023-08-07T10:32:11.638Z,1.98
2023-08-07T10:34:42.051Z,2.75
2023-08-07T10:37:46.458Z,2.30
2023-08-07T10:40:16.967Z,2.25
2023-08-07T10:42:56.103Z,2.38
2023-08-07T10:45:28.015Z,2.35
2023-08-07T10:48:12.882Z,2.20
2023-08-07T10:50:56.144Z,2.05
2023-08-07T10:53:56.827Z,2.70
2023-08-07T10:56:38.872Z,2.28
2023-08-07T10:59:14.257Z,1.85
2023-08-07T11:01:45.271Z,2.40
2023-08-07T11:04:16.608Z,2.40
2023-08-07T11:06:50.452Z,1.80
2023-08-07T11:09:20.648Z,2.30
2023-08-07T11:11:51.119Z,1.83
2023-08-07T11:14:21.548Z,1.98
2023-08-07T11:16:51.668Z,2.33
2023-08-07T11:19:21.891Z,2.15
2023-08-07T11:21:52.010Z,2.40
2023-08-07T11:24:22.847Z,2.03
2023-08-07T11:26:50.095Z,2.20
2023-08-07T11:29:20.555Z,2.33
2023-08-07T11:31:52.960Z,2.42
2023-08-07T11:34:23.697Z,2.20
2023-08-07T11:36:56.652Z,1.98
2023-08-07T11:39:27.597Z,2.05
2023-08-07T11:41:57.974Z,2.33
2023-08-07T11:44:30.354Z,2.47
2023-08-07T11:47:01.449Z,2.60
2023-08-07T11:49:31.631Z,2.50
2023-08-07T11:52:02.072Z,3.20
2023-08-07T11:54:30.292Z,2.90
2023-08-07T11:56:58.910Z,2.83
2023-08-07T11:59:27.752Z,2.45
2023-08-07T12:01:55.566Z,2.50
2023-08-07T12:04:23.886Z,2.40
2023-08-07T12:06:58.651Z,2.80
2023-08-07T12:09:29.896Z,2.40
2023-08-07T12:12:00.190Z,2.80
2023-08-07T12:14:33.368Z,2.97
2023-08-07T12:17:05.252Z,3.00
2023-08-07T12:19:44.514Z,2.40
2023-08-07T12:22:14.836Z,2.50
2023-08-07T12:24:45.054Z,2.40
2023-08-07T12:27:15.181Z,2.42
2023-08-07T12:29:45.305Z,2.00
2023-08-07T12:32:15.422Z,2.03
2023-08-07T12:37:19.128Z,2.22
2023-08-07T12:42:25.616Z,2.33
2023-08-07T12:44:55.994Z,1.73
2023-08-07T12:47:26.340Z,1.70
2023-08-07T12:49:54.523Z,1.83
2023-08-07T12:52:23.016Z,1.50
2023-08-07T12:54:51.399Z,1.40
2023-08-07T12:57:19.786Z,1.38
2023-08-07T12:59:48.233Z,1.60
2023-08-07T13:02:16.633Z,1.40
2023-08-07T13:04:45.255Z,1.70
2023-08-07T13:07:13.828Z,1.52
2023-08-07T13:09:41.957Z,1.67
2023-08-07T13:12:10.442Z,2.10
2023-08-07T13:14:39.525Z,1.92
2023-08-07T13:17:07.231Z,2.55
2023-08-07T13:19:35.978Z,1.95
2023-08-07T13:22:04.161Z,1.88
2023-08-07T13:24:32.870Z,2.33
2023-08-07T13:27:00.736Z,2.38
2023-08-07T13:29:30.971Z,2.45
2023-08-07T13:32:00.713Z,2.00
2023-08-07T13:34:29.015Z,1.98
2023-08-07T13:36:57.451Z,2.15
2023-08-07T13:39:25.804Z,2.50
2023-08-07T13:41:54.687Z,2.10
2023-08-07T13:44:23.677Z,2.45
2023-08-07T13:46:53.867Z,2.47
2023-08-07T13:49:24.814Z,2.20
2023-08-07T13:51:55.203Z,2.35
2023-08-07T13:54:25.782Z,3.28
2023-08-07T13:56:54.221Z,2.78
2023-08-07T13:59:22.621Z,2.38
2023-08-07T14:01:51.307Z,2.25
2023-08-07T14:04:19.513Z,2.75
2023-08-07T14:06:48.112Z,2.35
2023-08-07T14:09:16.221Z,1.90
2023-08-07T14:11:44.535Z,2.17
2023-08-07T14:14:13.011Z,2.45
2023-08-07T14:16:41.452Z,2.85
2023-08-07T14:19:10.307Z,2.08
2023-08-07T14:21:38.248Z,2.30
2023-08-07T14:24:07.750Z,1.95
2023-08-07T14:26:35.343Z,2.08
2023-08-07T14:29:03.524Z,1.80
2023-08-07T14:31:31.932Z,2.17
2023-08-07T14:34:00.304Z,2.00
2023-08-07T14:36:28.662Z,2.10
2023-08-07T14:38:57.135Z,2.00
2023-08-07T14:41:25.521Z,2.25
2023-08-07T14:43:53.931Z,2.10
2023-08-07T14:46:23.297Z,2.10
2023-08-07T14:48:50.921Z,2.10
2023-08-07T14:51:19.229Z,2.67
2023-08-07T14:53:47.562Z,1.85
2023-08-07T14:56:16.014Z,2.20
2023-08-07T14:58:44.390Z,2.42
2023-08-07T15:01:12.741Z,1.92
2023-08-07T15:03:41.189Z,3.00
2023-08-07T15:06:09.616Z,2.10
2023-08-07T15:08:37.960Z,3.10
2023-08-07T15:11:06.478Z,2.47
2023-08-07T15:13:37.839Z,3.63
2023-08-07T15:16:06.293Z,2.67
2023-08-07T15:18:34.894Z,2.58
2023-08-07T15:21:05.280Z,2.67
2023-08-07T15:23:35.542Z,2.72
2023-08-07T15:26:05.907Z,3.58
2023-08-07T15:28:36.174Z,2.80
2023-08-07T15:31:06.709Z,2.38
2023-08-07T15:33:36.859Z,2.30
2023-08-07T15:36:07.201Z,2.65
2023-08-07T15:38:39.663Z,2.85
2023-08-07T15:41:12.538Z,2.33
2023-08-07T15:43:42.805Z,2.85
2023-08-07T15:46:13.024Z,2.95
2023-08-07T15:48:44.028Z,2.58
2023-08-07T15:51:14.489Z,2.20
2023-08-07T15:53:44.684Z,3.08
2023-08-07T15:56:14.859Z,2.20
2023-08-07T15:58:44.990Z,2.90
2023-08-07T16:01:13.765Z,2.42
2023-08-07T16:03:41.923Z,2.30
2023-08-07T16:06:10.323Z,2.00
2023-08-07T16:08:38.962Z,2.20
2023-08-07T16:11:07.275Z,2.80
2023-08-07T16:13:36.467Z,2.90
2023-08-07T16:16:06.691Z,2.13
2023-08-07T16:18:37.897Z,3.00
2023-08-07T16:21:08.374Z,2.30
2023-08-07T16:23:38.647Z,2.13
2023-08-07T16:26:08.807Z,2.45
2023-08-07T16:28:39.026Z,1.85
2023-08-07T16:31:09.290Z,2.33
2023-08-07T16:33:40.284Z,2.33
2023-08-07T16:36:10.510Z,2.10
2023-08-07T16:38:40.701Z,3.22
2023-08-07T16:41:13.440Z,2.20
2023-08-07T16:43:44.280Z,2.33
2023-08-07T16:46:14.569Z,2.42
2023-08-07T16:48:42.888Z,2.25
2023-08-07T16:51:15.731Z,2.28
2023-08-07T16:53:49.539Z,2.50
2023-08-07T16:56:19.836Z,2.58
2023-08-07T16:58:51.646Z,2.42
2023-08-07T17:01:22.984Z,3.00
2023-08-07T17:03:53.217Z,2.25
2023-08-07T17:06:23.374Z,1.77
2023-08-07T17:08:53.586Z,2.65
2023-08-07T17:11:24.697Z,2.13
2023-08-07T17:13:58.191Z,3.15
2023-08-07T17:16:29.497Z,2.60
2023-08-07T17:19:00.931Z,2.45
2023-08-07T17:21:31.052Z,2.10
2023-08-07T17:24:01.172Z,2.33
2023-08-07T17:26:31.544Z,2.30
2023-08-07T17:29:01.877Z,2.33
2023-08-07T17:31:32.097Z,2.80
2023-08-07T17:34:02.323Z,2.03
2023-08-07T17:36:32.671Z,2.72
2023-08-07T17:39:02.955Z,2.15
2023-08-07T17:41:33.115Z,2.53
2023-08-07T17:44:03.294Z,2.20
2023-08-07T17:46:33.892Z,2.30
2023-08-07T17:49:04.146Z,2.83
2023-08-07T17:51:34.434Z,2.00
2023-08-07T17:54:04.709Z,2.30
2023-08-07T17:56:37.173Z,2.40
2023-08-07T17:59:07.144Z,2.35
2023-08-07T18:01:34.761Z,1.90
2023-08-07T18:04:03.307Z,2.95
2023-08-07T18:06:31.754Z,2.80
2023-08-07T18:09:00.072Z,2.45
2023-08-07T18:11:28.432Z,3.78
2023-08-07T18:13:56.999Z,2.15
2023-08-07T18:16:26.556Z,3.05
2023-08-07T18:18:57.096Z,2.25
2023-08-07T18:21:27.332Z,2.25
2023-08-07T18:23:57.726Z,3.70
2023-08-07T18:26:27.965Z,2.03
2023-08-07T18:28:56.733Z,2.63
2023-08-07T18:31:26.514Z,2.53
2023-08-07T18:33:56.090Z,2.17
2023-08-07T18:36:24.713Z,2.55
2023-08-07T18:38:52.954Z,3.00
2023-08-07T18:41:21.613Z,2.30
2023-08-07T18:43:50.216Z,2.10
2023-08-07T18:46:18.210Z,2.97
2023-08-07T18:48:47.116Z,2.45
2023-08-07T18:51:15.081Z,2.53
2023-08-07T18:53:43.797Z,2.40
2023-08-07T18:56:11.846Z,2.25
2023-08-07T18:58:40.200Z,2.30
2023-08-07T19:01:08.597Z,2.20
2023-08-07T19:03:37.139Z,2.10
2023-08-07T19:06:06.735Z,2.55
2023-08-07T19:08:40.209Z,2.28
2023-08-07T19:11:10.498Z,2.63
2023-08-07T19:13:40.676Z,2.38
2023-08-07T19:16:11.062Z,2.13
2023-08-07T19:18:41.261Z,2.17
2023-08-07T19:21:11.381Z,3.13
2023-08-07T19:23:41.506Z,2.35
2023-08-07T19:26:11.890Z,3.63
2023-08-07T19:28:42.074Z,2.88
2023-08-07T19:31:12.247Z,2.60
2023-08-07T19:33:42.592Z,1.70
2023-08-07T19:36:13.077Z,2.47
2023-08-07T19:38:43.276Z,2.17
2023-08-07T19:41:14.233Z,2.28
2023-08-07T19:43:45.317Z,2.65
2023-08-07T19:46:16.300Z,2.45
2023-08-07T19:48:43.925Z,1.90
2023-08-07T19:51:16.423Z,2.92
2023-08-07T19:53:59.786Z,2.25
2023-08-07T19:56:34.377Z,2.45
2023-08-07T19:59:06.884Z,2.50
2023-08-07T20:01:35.288Z,2.40
2023-08-07T20:04:04.687Z,2.20
2023-08-07T20:06:32.182Z,3.50
2023-08-07T20:09:00.488Z,2.30
2023-08-07T20:11:35.439Z,2.72
2023-08-07T20:14:06.366Z,2.72
2023-08-07T20:16:36.856Z,2.40
2023-08-07T20:19:07.228Z,2.30
2023-08-07T20:21:37.596Z,3.10
2023-08-07T20:24:07.917Z,2.90
2023-08-07T20:26:38.105Z,2.83
2023-08-07T20:29:08.249Z,2.05
2023-08-07T20:31:38.392Z,1.92
2023-08-07T20:34:08.764Z,2.40
2023-08-07T20:36:38.927Z,2.60
2023-08-07T20:39:14.132Z,1.98
2023-08-07T20:41:45.691Z,2.28
2023-08-07T20:44:15.891Z,2.67
2023-08-07T20:46:46.145Z,2.58
2023-08-07T20:49:16.287Z,2.63
2023-08-07T20:51:46.509Z,2.30
2023-08-07T20:54:16.635Z,2.67
2023-08-07T20:56:47.973Z,2.20
2023-08-07T20:59:18.141Z,2.10
2023-08-07T21:01:48.317Z,2.65
2023-08-07T21:04:18.675Z,2.70
2023-08-07T21:06:51.780Z,3.30
2023-08-07T21:09:22.255Z,2.55
2023-08-07T21:11:53.728Z,2.65
2023-08-07T21:14:23.768Z,2.45
2023-08-07T21:16:52.320Z,2.63
2023-08-07T21:19:20.634Z,3.00
2023-08-07T21:21:49.134Z,2.47
2023-08-07T21:24:17.499Z,2.67
2023-08-07T21:26:45.858Z,2.75
2023-08-07T21:29:14.248Z,2.70
2023-08-07T21:31:42.821Z,3.03
2023-08-07T21:34:11.078Z,2.10
2023-08-07T21:36:39.472Z,2.63
2023-08-07T21:39:08.039Z,2.60
2023-08-07T21:41:36.411Z,2.53
2023-08-07T21:44:05.066Z,2.60
2023-08-07T21:46:33.233Z,2.50
2023-08-07T21:49:02.193Z,2.42
2023-08-07T21:51:30.079Z,2.33
2023-08-07T21:53:58.367Z,2.60
2023-08-07T21:56:26.873Z,3.10
2023-08-07T21:58:55.493Z,2.78
2023-08-07T22:01:23.812Z,2.35
2023-08-07T22:03:52.200Z,2.53
2023-08-07T22:06:20.581Z,3.15
2023-08-07T22:08:48.841Z,3.85
2023-08-07T22:11:17.403Z,2.95
2023-08-07T22:13:46.438Z,2.45
2023-08-07T22:16:14.468Z,3.00
2023-08-07T22:18:42.611Z,2.70
2023-08-07T22:21:10.957Z,2.83
2023-08-07T22:23:39.535Z,3.13
2023-08-07T22:26:07.844Z,2.90
2023-08-07T22:28:37.601Z,2.67
2023-08-07T22:31:07.704Z,3.10
2023-08-07T22:33:38.103Z,2.70
2023-08-07T22:36:12.745Z,2.70
2023-08-07T22:38:43.377Z,2.65
2023-08-07T22:41:13.782Z,2.60
2023-08-07T22:43:43.991Z,2.83
2023-08-07T22:46:14.244Z,2.88
2023-08-07T22:48:44.443Z,2.80
2023-08-07T22:51:14.604Z,3.10
2023-08-07T22:53:44.806Z,3.60
2023-08-07T22:56:14.996Z,3.35
2023-08-07T22:58:45.102Z,2.90
2023-08-07T23:01:15.355Z,3.00
2023-08-07T23:03:45.471Z,2.88
2023-08-07T23:06:15.646Z,2.95
2023-08-07T23:08:45.853Z,2.92
2023-08-07T23:11:16.050Z,2.55
2023-08-07T23:13:46.187Z,2.83
2023-08-07T23:16:16.423Z,2.90
2023-08-07T23:18:46.635Z,2.60
2023-08-07T23:21:17.306Z,2.83
2023-08-07T23:23:47.525Z,2.90
2023-08-07T23:26:16.008Z,3.05
2023-08-07T23:28:44.321Z,2.30
2023-08-07T23:31:12.805Z,2.38
2023-08-07T23:33:42.581Z,2.65
2023-08-07T23:36:12.617Z,2.53
2023-08-07T23:38:41.026Z,2.90
2023-08-07T23:41:09.486Z,2.67
2023-08-07T23:43:37.939Z,2.40
2023-08-07T23:46:06.411Z,3.08
2023-08-07T23:48:35.780Z,3.03
2023-08-07T23:51:03.320Z,2.58
2023-08-07T23:53:31.845Z,2.30
2023-08-07T23:56:00.259Z,2.33
2023-08-07T23:58:28.548Z,2.85
